Local Weather Dagens Jour: Bogdan Zamcanu Saturday 22nd of January
Flygplats METAR TAF
Airport METAR TAF
ESSL - Linköping221950Z 24003KT 9999 SCT019 M03/M07 Q1024=221430Z 2215/2218 24003KT 9999 BKN045=
ESCF - Malmen221950Z AUTO VRB01KT 9999 SCT019/// M03/M07 Q1024=NO VALID TAF PUBLISHED
ESSP - Norrköping221950Z AUTO 23002KT 9999 NCD M05/M08 Q1024=NO VALID TAF PUBLISHED
ESGJ - Jönköping221950Z AUTO 19002KT 9999 OVC005/// M02/M03 Q1024=NO VALID TAF PUBLISHED
ESKN - Skavsta221950Z 23006KT 9999 BKN014 M03/M07 Q1023=221730Z 2218/2318 20005KT 9999 SCT035 BECMG 2300/2302 OVC005 PROB40 2302/2318 2000 BR OVC003=
ESSV - Visby221950Z AUTO VRB03KT 9999 FEW033/// OVC040/// M00/M06 Q1024=NO VALID TAF PUBLISHED
ESGG - Göteborg221950Z VRB02KT 0350 R03/P2000N R21/1100U FG VV003 00/M00 Q1024=221730Z 2218/2318 18006KT 5000 OVC006 PROB40 2218/2318 0300 FG VV002=
FLEET STATUS
Flygplan Tid till service Tid till flygstopp Flygtid Landningar
Aircraft To service To stop Total time Landings
SE-IUD37.2 h42.2 h12 512.8 h25 639 st.
(1) Horisontgyro u/s (hänger, felaktig referens till horisont)
SE-KIT39.2 h49.2 h12 760.8 h25 206 st.
SE-KMH22.9 h32.9 h16 677.1 h61 983 st.
(1) Höger däck har slitage på en liten yta
SE-LRL34.1 h39.1 h1 465.9 h2 865 st.
SE-MEB1.2 h11.2 h1 798.8 h5 473 st.
(1) Stalvarnare ur funktion
SE-MEKN/AN/A3 827.0 h3 877 st.
PPR
Ankomst Avgång Flygplan Namn Bränsle
Arrival Departure Aircraft Name Fuel
NOTAM
>>> ESSL/LINKOPING/SAAB <<<
>>> ESSP/NORRKOPING/KUNGSANGEN <<<
>>> ESCF/LINKOPING/MALMEN <<<